createdAt,value
2017-07-02T00:01:10.871Z,69.20
2017-07-02T00:03:37.232Z,69.10
2017-07-02T00:06:03.588Z,68.90
2017-07-02T00:08:29.945Z,69.00
2017-07-02T00:10:56.589Z,69.00
2017-07-02T00:13:22.931Z,69.00
2017-07-02T00:15:49.290Z,69.10
2017-07-02T00:18:15.699Z,69.30
2017-07-02T00:20:42.773Z,69.20
2017-07-02T00:23:09.125Z,69.10
2017-07-02T00:25:36.087Z,69.00
2017-07-02T00:28:03.260Z,69.00
2017-07-02T00:30:29.609Z,69.00
2017-07-02T00:32:56.695Z,69.00
2017-07-02T00:35:23.063Z,68.90
2017-07-02T00:37:50.202Z,69.20
2017-07-02T00:40:16.548Z,69.20
2017-07-02T00:42:43.650Z,69.60
2017-07-02T00:45:10.307Z,69.60
2017-07-02T00:47:36.695Z,69.70
2017-07-02T00:50:03.030Z,70.40
2017-07-02T00:52:29.401Z,69.70
2017-07-02T00:54:55.783Z,69.80
2017-07-02T00:57:22.116Z,70.00
2017-07-02T00:59:48.486Z,70.50
2017-07-02T01:02:15.142Z,71.00
2017-07-02T01:04:42.235Z,72.00
2017-07-02T01:07:08.587Z,72.00
2017-07-02T01:09:34.943Z,72.30
2017-07-02T01:12:01.294Z,72.80
2017-07-02T01:14:27.659Z,73.30
2017-07-02T01:16:54.018Z,73.40
2017-07-02T01:19:20.693Z,73.40
2017-07-02T01:21:47.058Z,73.50
2017-07-02T01:24:13.460Z,73.70
2017-07-02T01:26:39.828Z,73.80
2017-07-02T01:29:06.172Z,73.20
2017-07-02T01:31:32.591Z,73.40
2017-07-02T01:33:58.953Z,73.40
2017-07-02T01:36:25.638Z,74.20
2017-07-02T01:38:52.035Z,73.80
2017-07-02T01:41:18.446Z,74.00
2017-07-02T01:43:44.773Z,73.80
2017-07-02T01:46:11.158Z,73.90
2017-07-02T01:48:37.524Z,74.90
2017-07-02T01:51:03.889Z,74.40
2017-07-02T01:53:30.588Z,74.70
2017-07-02T01:55:57.039Z,74.70
2017-07-02T01:58:23.410Z,75.00
2017-07-02T02:01:01.975Z,75.60
2017-07-02T02:03:28.353Z,76.50
2017-07-02T02:05:54.758Z,77.40
2017-07-02T02:08:21.853Z,79.40
2017-07-02T02:10:48.254Z,79.30
2017-07-02T02:13:14.596Z,80.40
2017-07-02T02:15:41.216Z,81.40
2017-07-02T02:18:07.684Z,81.90
2017-07-02T02:20:34.046Z,82.70
2017-07-02T02:23:00.415Z,83.70
2017-07-02T02:25:26.774Z,84.40
2017-07-02T02:27:53.116Z,85.60
2017-07-02T02:30:19.466Z,85.50
2017-07-02T02:32:45.822Z,86.30
2017-07-02T02:35:12.137Z,86.90
2017-07-02T02:37:38.841Z,87.30
2017-07-02T02:40:05.190Z,87.80
2017-07-02T02:42:32.287Z,88.80
2017-07-02T02:44:58.645Z,88.80
2017-07-02T02:47:25.028Z,89.30
2017-07-02T02:49:58.161Z,89.80
2017-07-02T02:52:24.554Z,90.00
2017-07-02T02:54:50.943Z,90.10
2017-07-02T02:57:17.271Z,90.30
2017-07-02T02:59:43.641Z,90.40
2017-07-02T03:02:10.038Z,90.50
2017-07-02T03:04:36.393Z,90.70
2017-07-02T03:07:02.788Z,90.90
2017-07-02T03:09:29.153Z,91.10
2017-07-02T03:11:55.854Z,91.10
2017-07-02T03:14:22.257Z,91.20
2017-07-02T03:16:48.622Z,91.30
2017-07-02T03:19:15.090Z,91.40
2017-07-02T03:21:41.455Z,91.60
2017-07-02T03:24:07.841Z,91.70
2017-07-02T03:26:34.164Z,91.90
2017-07-02T03:29:00.544Z,92.10
2017-07-02T03:31:26.890Z,92.40
2017-07-02T03:33:53.635Z,92.60
2017-07-02T03:36:20.708Z,92.90
2017-07-02T03:38:47.081Z,92.90
2017-07-02T03:41:13.405Z,93.10
2017-07-02T03:43:39.763Z,93.10
2017-07-02T03:46:06.909Z,93.30
2017-07-02T03:48:34.057Z,93.20
2017-07-02T03:51:00.396Z,93.50
2017-07-02T03:53:26.768Z,93.60
2017-07-02T03:55:53.451Z,93.80
2017-07-02T03:58:19.853Z,94.00
2017-07-02T04:00:46.235Z,94.00
2017-07-02T04:03:13.638Z,94.20
2017-07-02T04:05:40.332Z,94.20
2017-07-02T04:08:07.409Z,94.40
2017-07-02T04:10:33.765Z,94.40
2017-07-02T04:13:00.113Z,94.50
2017-07-02T04:15:26.501Z,94.60
2017-07-02T04:17:53.182Z,94.60
2017-07-02T04:20:19.532Z,94.80
2017-07-02T04:22:45.905Z,95.00
2017-07-02T04:25:12.293Z,95.20
2017-07-02T04:27:38.639Z,95.30
2017-07-02T04:30:05.275Z,95.20
2017-07-02T04:32:31.622Z,95.10
2017-07-02T04:34:57.994Z,95.10
2017-07-02T04:37:24.367Z,95.20
2017-07-02T04:39:50.700Z,95.30
2017-07-02T04:42:17.387Z,95.40
2017-07-02T04:44:43.762Z,95.10
2017-07-02T04:47:10.143Z,94.90
2017-07-02T04:49:36.506Z,94.90
2017-07-02T04:52:02.875Z,94.60
2017-07-02T04:54:29.235Z,94.60
2017-07-02T04:56:55.577Z,95.10
2017-07-02T04:59:22.308Z,94.70
2017-07-02T05:01:48.652Z,94.70
2017-07-02T05:04:14.973Z,94.70
2017-07-02T05:06:42.072Z,94.60
2017-07-02T05:09:08.470Z,94.60
2017-07-02T05:11:35.220Z,94.30
2017-07-02T05:14:02.059Z,94.20
2017-07-02T05:16:28.443Z,94.00
2017-07-02T05:18:54.940Z,94.10
2017-07-02T05:21:21.639Z,94.10
2017-07-02T05:23:48.000Z,94.30
2017-07-02T05:26:15.064Z,94.50
2017-07-02T05:28:41.502Z,94.10
2017-07-02T05:31:08.454Z,94.00
2017-07-02T05:33:35.089Z,93.70
2017-07-02T05:36:01.563Z,93.50
2017-07-02T05:38:29.206Z,93.40
2017-07-02T05:40:56.290Z,93.30
2017-07-02T05:43:22.980Z,93.30
2017-07-02T05:45:50.076Z,93.10
2017-07-02T05:48:16.476Z,93.30
2017-07-02T05:50:43.558Z,93.30
2017-07-02T05:53:09.992Z,93.20
2017-07-02T05:55:36.357Z,93.30
2017-07-02T05:58:02.700Z,93.40
2017-07-02T06:00:30.198Z,93.60
2017-07-02T06:02:56.944Z,93.60
2017-07-02T06:05:23.346Z,93.50
2017-07-02T06:07:49.729Z,93.70
2017-07-02T06:10:16.060Z,93.80
2017-07-02T06:12:42.440Z,93.70
2017-07-02T06:15:08.812Z,93.90
2017-07-02T06:17:35.590Z,94.10
2017-07-02T06:20:02.005Z,94.20
2017-07-02T06:22:28.350Z,94.20
2017-07-02T06:24:55.474Z,94.50
2017-07-02T06:27:21.814Z,94.40
2017-07-02T06:29:48.208Z,94.60
2017-07-02T06:32:14.588Z,94.70
2017-07-02T06:34:42.045Z,94.60
2017-07-02T06:37:09.135Z,94.60
2017-07-02T06:39:35.518Z,94.60
2017-07-02T06:42:02.654Z,94.20
2017-07-02T06:44:29.046Z,94.20
2017-07-02T06:46:55.388Z,93.50
2017-07-02T06:49:21.766Z,93.80
2017-07-02T06:51:49.160Z,93.70
2017-07-02T06:54:15.564Z,93.70
2017-07-02T06:56:41.949Z,93.50
2017-07-02T06:59:08.369Z,93.60
2017-07-02T07:01:34.909Z,93.60
2017-07-02T07:04:01.308Z,93.80
2017-07-02T07:06:27.674Z,94.00
2017-07-02T07:08:54.428Z,94.20
2017-07-02T07:11:21.562Z,94.20
2017-07-02T07:13:48.726Z,94.50
2017-07-02T07:16:15.083Z,94.50
2017-07-02T07:18:41.533Z,94.70
2017-07-02T07:21:08.238Z,94.80
2017-07-02T07:23:34.601Z,95.00
2017-07-02T07:26:00.970Z,94.70
2017-07-02T07:28:27.329Z,94.70
2017-07-02T07:30:54.439Z,94.90
2017-07-02T07:33:20.805Z,94.90
2017-07-02T07:35:47.292Z,94.50
2017-07-02T07:38:13.965Z,94.60
2017-07-02T07:40:41.102Z,94.70
2017-07-02T07:43:07.479Z,94.70
2017-07-02T07:45:33.873Z,94.60
2017-07-02T07:48:01.013Z,94.60
2017-07-02T07:50:28.082Z,94.80
2017-07-02T07:52:54.445Z,94.80
2017-07-02T07:55:21.153Z,94.90
2017-07-02T07:57:47.578Z,95.00
2017-07-02T08:00:14.078Z,95.00
2017-07-02T08:02:40.449Z,95.00
2017-07-02T08:05:06.818Z,95.00
2017-07-02T08:07:33.194Z,95.30
2017-07-02T08:10:00.275Z,95.50
2017-07-02T08:12:26.678Z,95.50
2017-07-02T08:14:53.390Z,95.40
2017-07-02T08:17:20.461Z,95.50
2017-07-02T08:19:46.865Z,95.50
2017-07-02T08:22:13.273Z,95.60
2017-07-02T08:24:39.625Z,95.80
2017-07-02T08:27:06.291Z,95.50
2017-07-02T08:29:32.629Z,95.50
2017-07-02T08:31:59.030Z,95.40
2017-07-02T08:34:26.183Z,95.50
2017-07-02T08:36:52.599Z,95.50
2017-07-02T08:39:19.023Z,95.40
2017-07-02T08:41:45.379Z,95.60
2017-07-02T08:44:12.079Z,95.60
2017-07-02T08:46:38.458Z,95.80
2017-07-02T08:49:04.806Z,95.70
2017-07-02T08:51:31.207Z,95.80
2017-07-02T08:53:58.379Z,95.80
2017-07-02T08:56:25.086Z,95.80
2017-07-02T08:58:52.258Z,96.00
2017-07-02T09:01:18.594Z,95.60
2017-07-02T09:03:44.971Z,95.80
2017-07-02T09:06:11.311Z,95.70
2017-07-02T09:08:37.694Z,95.70
2017-07-02T09:11:04.044Z,95.40
2017-07-02T09:13:30.742Z,95.30
2017-07-02T09:15:57.115Z,95.30
2017-07-02T09:18:23.527Z,95.30
2017-07-02T09:20:49.946Z,95.20
2017-07-02T09:23:16.325Z,95.00
2017-07-02T09:25:42.672Z,95.00
2017-07-02T09:28:09.077Z,95.10
2017-07-02T09:30:35.677Z,95.20
2017-07-02T09:33:02.010Z,95.40
2017-07-02T09:35:28.355Z,95.60
2017-07-02T09:37:54.741Z,95.40
2017-07-02T09:40:21.111Z,95.30
2017-07-02T09:42:47.486Z,95.70
2017-07-02T09:45:13.837Z,95.90
2017-07-02T09:47:40.550Z,95.90
2017-07-02T09:50:07.652Z,95.90
2017-07-02T09:52:34.046Z,95.90
2017-07-02T09:55:00.497Z,95.90
2017-07-02T09:57:26.981Z,96.00
2017-07-02T09:59:53.668Z,95.90
2017-07-02T10:02:20.055Z,96.10
2017-07-02T10:04:47.175Z,96.20
2017-07-02T10:07:13.683Z,95.80
2017-07-02T10:09:40.077Z,95.70
2017-07-02T10:12:06.504Z,95.50
2017-07-02T10:14:32.891Z,95.60
2017-07-02T10:16:59.671Z,95.60
2017-07-02T10:19:26.409Z,95.40
2017-07-02T10:21:52.773Z,95.60
2017-07-02T10:24:19.211Z,95.40
2017-07-02T10:26:45.599Z,95.50
2017-07-02T10:29:12.049Z,95.10
2017-07-02T10:31:38.412Z,94.90
2017-07-02T10:34:05.063Z,94.80
2017-07-02T10:36:31.440Z,94.40
2017-07-02T10:38:58.546Z,94.60
2017-07-02T10:41:24.915Z,94.50
2017-07-02T10:43:52.018Z,94.00
2017-07-02T10:46:18.425Z,94.00
2017-07-02T10:48:44.819Z,94.20
2017-07-02T10:51:11.947Z,94.30
2017-07-02T10:53:39.084Z,93.70
2017-07-02T10:56:05.726Z,93.70
2017-07-02T10:58:32.096Z,93.20
2017-07-02T11:00:58.495Z,92.80
2017-07-02T11:03:24.906Z,92.60
2017-07-02T11:05:51.256Z,92.60
2017-07-02T11:08:17.659Z,92.80
2017-07-02T11:10:44.028Z,92.60
2017-07-02T11:13:11.162Z,92.20
2017-07-02T11:15:37.575Z,92.20
2017-07-02T11:21:01.250Z,90.60
2017-07-02T11:23:27.612Z,88.80
2017-07-02T11:25:55.629Z,86.80
2017-07-02T11:28:22.305Z,88.00
2017-07-02T11:30:48.643Z,86.60
2017-07-02T11:33:15.006Z,85.00
2017-07-02T11:35:41.373Z,83.90
2017-07-02T11:38:07.778Z,81.60
2017-07-02T11:40:34.161Z,80.70
2017-07-02T11:43:00.521Z,76.90
2017-07-02T11:45:26.960Z,78.50
2017-07-02T11:47:53.326Z,77.60
2017-07-02T11:50:19.993Z,76.50
2017-07-02T11:52:46.417Z,77.30
2017-07-02T11:55:12.993Z,77.50
2017-07-02T11:57:39.373Z,77.80
2017-07-02T12:00:05.767Z,75.40
2017-07-02T12:02:32.155Z,76.00
2017-07-02T12:05:00.216Z,73.80
2017-07-02T12:07:26.643Z,73.80
2017-07-02T12:09:52.996Z,72.00
2017-07-02T12:12:20.072Z,73.20
2017-07-02T12:14:46.499Z,73.20
2017-07-02T12:17:12.879Z,71.80
2017-07-02T12:19:39.294Z,69.20
2017-07-02T12:22:05.690Z,69.20
2017-07-02T12:24:32.169Z,68.60
2017-07-02T12:26:58.554Z,68.00
2017-07-02T12:29:24.942Z,66.90
2017-07-02T12:31:51.320Z,60.10
2017-07-02T12:34:17.685Z,60.50
2017-07-02T12:36:44.052Z,61.90
2017-07-02T12:39:11.157Z,63.30
2017-07-02T12:41:37.844Z,63.30
2017-07-02T12:44:04.134Z,64.20
2017-07-02T12:46:30.522Z,64.20
2017-07-02T12:48:56.975Z,64.50
2017-07-02T12:51:23.311Z,66.60
2017-07-02T12:53:49.704Z,67.70
2017-07-02T12:56:16.078Z,68.10
2017-07-02T12:58:42.721Z,69.10
2017-07-02T13:01:09.124Z,70.30
2017-07-02T13:03:35.537Z,71.20
2017-07-02T13:06:02.070Z,72.10
2017-07-02T13:08:28.450Z,73.50
2017-07-02T13:10:54.825Z,73.50
2017-07-02T13:13:21.177Z,74.70
2017-07-02T13:15:47.866Z,75.40
2017-07-02T13:18:14.970Z,75.10
2017-07-02T13:20:41.328Z,75.00
2017-07-02T13:23:07.757Z,75.40
2017-07-02T13:25:34.242Z,74.90
2017-07-02T13:28:00.614Z,72.50
2017-07-02T13:30:26.994Z,72.60
2017-07-02T13:32:53.341Z,73.30
2017-07-02T13:35:19.709Z,73.70
2017-07-02T13:37:46.375Z,72.50
2017-07-02T13:40:12.722Z,68.30
2017-07-02T13:42:39.109Z,67.00
2017-07-02T13:45:13.792Z,68.80
2017-07-02T13:47:40.141Z,69.10
2017-07-02T13:50:06.530Z,69.70
2017-07-02T13:52:32.913Z,69.70
2017-07-02T13:54:59.288Z,70.40
2017-07-02T13:57:26.752Z,72.00
2017-07-02T13:59:53.413Z,73.80
2017-07-02T14:02:20.545Z,76.80
2017-07-02T14:04:46.971Z,76.80
2017-07-02T14:07:13.369Z,77.60
2017-07-02T14:09:39.712Z,78.30
2017-07-02T14:12:06.357Z,79.90
2017-07-02T14:14:32.747Z,81.10
2017-07-02T14:16:59.086Z,82.10
2017-07-02T14:19:25.477Z,84.00
2017-07-02T14:21:51.843Z,85.60
2017-07-02T14:24:19.293Z,90.10
2017-07-02T14:26:45.638Z,90.10
2017-07-02T14:29:12.720Z,91.10
2017-07-02T14:31:39.085Z,91.10
2017-07-02T14:34:05.466Z,91.20
2017-07-02T14:36:32.126Z,90.90
2017-07-02T14:38:59.219Z,90.70
2017-07-02T14:41:25.557Z,90.60
2017-07-02T14:43:51.938Z,90.60
2017-07-02T14:46:18.296Z,90.70
2017-07-02T14:48:44.923Z,90.70
2017-07-02T14:51:11.331Z,90.70
2017-07-02T14:53:37.624Z,90.70
2017-07-02T14:56:04.006Z,90.80
2017-07-02T14:58:30.366Z,90.60
2017-07-02T15:00:56.781Z,90.90
2017-07-02T15:03:23.168Z,91.10
2017-07-02T15:05:49.844Z,91.20
2017-07-02T15:08:16.215Z,91.30
2017-07-02T15:10:42.579Z,91.90
2017-07-02T15:13:08.976Z,92.30
2017-07-02T15:15:35.273Z,92.80
2017-07-02T15:18:02.429Z,93.20
2017-07-02T15:20:29.581Z,93.20
2017-07-02T15:22:57.033Z,93.30
2017-07-02T15:25:24.190Z,93.30
2017-07-02T15:27:50.585Z,93.30
2017-07-02T15:30:16.984Z,93.30
2017-07-02T15:32:43.374Z,93.40
2017-07-02T15:35:10.476Z,93.40
2017-07-02T15:37:36.881Z,93.40
2017-07-02T15:40:03.668Z,93.30
2017-07-02T15:42:30.033Z,93.00
2017-07-02T15:44:56.447Z,92.80
2017-07-02T15:47:22.872Z,92.60
2017-07-02T15:49:49.290Z,92.90
2017-07-02T15:52:15.750Z,93.30
2017-07-02T15:54:42.123Z,93.20
2017-07-02T15:57:08.839Z,93.40
2017-07-02T15:59:35.209Z,93.80
2017-07-02T16:02:01.670Z,94.00
2017-07-02T16:04:28.302Z,94.30
2017-07-02T16:06:55.514Z,94.60
2017-07-02T16:09:22.105Z,94.50
2017-07-02T16:11:48.662Z,94.40
2017-07-02T16:14:15.544Z,94.50
2017-07-02T16:16:42.341Z,94.50
2017-07-02T16:19:08.830Z,94.30
2017-07-02T16:21:35.275Z,94.20
2017-07-02T16:24:01.956Z,94.00
2017-07-02T16:26:28.738Z,93.80
2017-07-02T16:28:55.296Z,93.80
2017-07-02T16:31:21.765Z,94.00
2017-07-02T16:33:48.297Z,94.30
2017-07-02T16:36:14.719Z,94.60
2017-07-02T16:38:41.514Z,94.70
2017-07-02T16:41:07.958Z,94.90
2017-07-02T16:43:34.528Z,95.10
2017-07-02T16:46:00.985Z,95.00
2017-07-02T16:48:27.433Z,95.00
2017-07-02T16:50:54.619Z,94.70
2017-07-02T16:53:21.045Z,95.00
2017-07-02T16:55:47.516Z,94.60
2017-07-02T16:58:13.977Z,94.60
2017-07-02T17:00:40.392Z,94.70
2017-07-02T17:03:07.145Z,94.70
2017-07-02T17:05:34.285Z,94.20
2017-07-02T17:08:00.657Z,94.20
2017-07-02T17:10:27.102Z,94.20
2017-07-02T17:12:53.543Z,94.10
2017-07-02T17:15:19.967Z,94.00
2017-07-02T17:17:46.352Z,93.80
2017-07-02T17:20:13.055Z,93.80
2017-07-02T17:22:39.398Z,93.90
2017-07-02T17:25:05.806Z,94.10
2017-07-02T17:27:32.215Z,94.10
2017-07-02T17:29:58.604Z,94.10
2017-07-02T17:32:25.001Z,94.10
2017-07-02T17:34:51.375Z,94.20
2017-07-02T17:37:18.826Z,94.20
2017-07-02T17:39:45.217Z,94.20
2017-07-02T17:42:11.626Z,94.20
2017-07-02T17:44:38.038Z,94.30
2017-07-02T17:47:04.467Z,94.20
2017-07-02T17:49:30.918Z,94.30
2017-07-02T17:51:57.397Z,94.00
2017-07-02T17:54:23.818Z,93.80
2017-07-02T17:56:50.241Z,93.70
2017-07-02T17:59:16.668Z,93.60
2017-07-02T18:01:43.099Z,93.60
2017-07-02T18:04:09.503Z,93.40
2017-07-02T18:06:35.941Z,93.40
2017-07-02T18:09:02.421Z,92.90
2017-07-02T18:11:28.959Z,93.00
2017-07-02T18:13:55.357Z,93.30
2017-07-02T18:16:21.785Z,93.50
2017-07-02T18:18:48.249Z,93.70
2017-07-02T18:21:14.709Z,94.00
2017-07-02T18:23:41.126Z,94.10
2017-07-02T18:26:07.630Z,94.40
2017-07-02T18:28:34.067Z,94.60
2017-07-02T18:31:00.557Z,94.80
2017-07-02T18:33:26.941Z,94.80
2017-07-02T18:35:53.374Z,94.90
2017-07-02T18:38:19.801Z,94.90
2017-07-02T18:40:46.219Z,95.10
2017-07-02T18:43:12.611Z,95.30
2017-07-02T18:45:39.304Z,95.40
2017-07-02T18:48:05.733Z,95.50
2017-07-02T18:50:32.137Z,95.80
2017-07-02T18:52:58.599Z,95.90
2017-07-02T18:55:25.876Z,96.10
2017-07-02T18:57:52.584Z,96.10
2017-07-02T19:00:19.023Z,96.10
2017-07-02T19:02:45.502Z,96.10
2017-07-02T19:05:11.929Z,96.10
2017-07-02T19:07:38.344Z,96.10
2017-07-02T19:10:05.050Z,96.20
2017-07-02T19:12:32.191Z,96.40
2017-07-02T19:14:59.363Z,96.30
2017-07-02T19:17:26.563Z,96.20
2017-07-02T19:19:52.998Z,96.20
2017-07-02T19:22:19.477Z,96.00
2017-07-02T19:24:46.707Z,96.00
2017-07-02T19:27:13.122Z,95.90
2017-07-02T19:29:39.561Z,95.70
2017-07-02T19:32:06.003Z,95.80
2017-07-02T19:34:32.436Z,95.80
2017-07-02T19:36:58.806Z,95.90
2017-07-02T19:39:25.523Z,96.00
2017-07-02T19:41:51.942Z,95.90
2017-07-02T19:44:18.387Z,95.90
2017-07-02T19:46:44.874Z,96.00
2017-07-02T19:49:11.213Z,96.00
2017-07-02T19:51:45.482Z,96.10
2017-07-02T19:54:12.544Z,96.10
2017-07-02T19:56:39.518Z,96.10
2017-07-02T19:59:06.623Z,96.20
2017-07-02T20:01:33.714Z,96.30
2017-07-02T20:04:00.391Z,96.40
2017-07-02T20:06:26.770Z,96.50
2017-07-02T20:08:54.279Z,96.60
2017-07-02T20:11:20.746Z,96.60
2017-07-02T20:13:47.692Z,96.70
2017-07-02T20:16:15.008Z,96.80
2017-07-02T20:18:42.627Z,97.00
2017-07-02T20:21:09.582Z,96.80
2017-07-02T20:23:37.699Z,96.70
2017-07-02T20:26:04.392Z,97.00
2017-07-02T20:28:31.612Z,97.00
2017-07-02T20:30:59.266Z,96.90
2017-07-02T20:33:27.199Z,97.00
2017-07-02T20:35:53.673Z,97.00
2017-07-02T20:38:20.125Z,97.00
2017-07-02T20:40:47.305Z,97.00
2017-07-02T20:43:13.688Z,96.90
2017-07-02T20:45:40.058Z,97.00
2017-07-02T20:48:06.764Z,97.10
2017-07-02T20:50:33.109Z,96.90
2017-07-02T20:52:59.485Z,96.90
2017-07-02T20:55:25.878Z,97.00
2017-07-02T20:57:52.980Z,96.80
2017-07-02T21:00:19.350Z,96.70
2017-07-02T21:02:46.514Z,96.90
2017-07-02T21:05:13.210Z,96.90
2017-07-02T21:07:39.615Z,96.80
2017-07-02T21:10:06.011Z,96.70
2017-07-02T21:12:32.385Z,96.70
2017-07-02T21:14:58.705Z,96.60
2017-07-02T21:17:25.046Z,96.50
2017-07-02T21:19:51.455Z,96.50
2017-07-02T21:22:18.116Z,96.50
2017-07-02T21:24:45.306Z,96.50
2017-07-02T21:27:12.376Z,96.20
2017-07-02T21:29:38.757Z,96.20
2017-07-02T21:32:05.130Z,95.90
2017-07-02T21:34:31.493Z,95.80
2017-07-02T21:36:57.851Z,95.70
2017-07-02T21:39:24.251Z,95.60
2017-07-02T21:41:50.589Z,95.40
2017-07-02T21:44:17.272Z,95.50
2017-07-02T21:46:43.620Z,95.40
2017-07-02T21:49:09.976Z,95.40
2017-07-02T21:51:36.272Z,95.30
2017-07-02T21:54:02.642Z,95.30
2017-07-02T21:56:29.069Z,95.30
2017-07-02T22:01:55.653Z,95.60
2017-07-02T22:04:22.710Z,95.90
2017-07-02T22:06:49.813Z,96.00
2017-07-02T22:09:16.151Z,96.00
2017-07-02T22:11:42.511Z,95.90
2017-07-02T22:14:08.885Z,96.00
2017-07-02T22:16:36.074Z,96.00
2017-07-02T22:19:03.535Z,95.80
2017-07-02T22:21:30.602Z,95.60
2017-07-02T22:23:57.029Z,95.80
2017-07-02T22:26:23.407Z,95.90
2017-07-02T22:28:49.790Z,96.10
2017-07-02T22:31:16.866Z,96.00
2017-07-02T22:33:43.193Z,96.00
2017-07-02T22:36:09.885Z,96.00
2017-07-02T22:38:36.239Z,96.10
2017-07-02T22:41:02.581Z,96.30
2017-07-02T22:43:28.995Z,96.40
2017-07-02T22:45:55.344Z,96.50
2017-07-02T22:48:21.766Z,96.60
2017-07-02T22:50:48.172Z,96.80
2017-07-02T22:53:15.617Z,97.00
2017-07-02T22:55:42.697Z,97.10
2017-07-02T22:58:09.053Z,97.10
2017-07-02T23:00:35.406Z,97.10
2017-07-02T23:03:01.751Z,97.20
2017-07-02T23:05:28.109Z,97.20
2017-07-02T23:07:54.485Z,97.20
2017-07-02T23:10:21.142Z,97.30
2017-07-02T23:12:47.502Z,97.30
2017-07-02T23:15:13.852Z,97.30
2017-07-02T23:17:47.282Z,97.40
2017-07-02T23:20:13.685Z,97.40
2017-07-02T23:22:40.065Z,97.40
2017-07-02T23:25:07.268Z,97.50
2017-07-02T23:27:33.664Z,97.50
2017-07-02T23:30:00.001Z,97.50
2017-07-02T23:32:26.318Z,97.50
2017-07-02T23:34:53.409Z,97.50
2017-07-02T23:37:19.735Z,97.40
2017-07-02T23:39:46.122Z,97.30
2017-07-02T23:42:13.224Z,97.40
2017-07-02T23:44:39.577Z,97.30
2017-07-02T23:47:12.139Z,97.40
2017-07-02T23:49:38.780Z,97.50
2017-07-02T23:52:05.129Z,97.50
2017-07-02T23:54:32.215Z,97.50
2017-07-02T23:56:58.584Z,97.50
2017-07-02T23:59:25.695Z,97.40
